createdAt,value
2023-04-25T00:00:26.171Z,64.30
2023-04-25T00:02:54.270Z,64.25
2023-04-25T00:05:24.395Z,64.56
2023-04-25T00:07:52.311Z,64.57
2023-04-25T00:10:20.650Z,64.65
2023-04-25T00:12:48.923Z,64.59
2023-04-25T00:15:17.126Z,64.48
2023-04-25T00:17:46.605Z,64.54
2023-04-25T00:20:14.658Z,64.50
2023-04-25T00:22:43.778Z,64.72
2023-04-25T00:25:11.563Z,64.97
2023-04-25T00:27:40.097Z,64.76
2023-04-25T00:30:09.175Z,64.74
2023-04-25T00:32:37.117Z,64.85
2023-04-25T00:35:05.613Z,64.84
2023-04-25T00:37:33.511Z,65.07
2023-04-25T00:40:03.607Z,65.19
2023-04-25T00:42:32.998Z,64.95
2023-04-25T00:45:01.034Z,65.00
2023-04-25T00:47:30.910Z,64.93
2023-04-25T00:49:58.652Z,64.99
2023-04-25T00:52:26.620Z,65.24
2023-04-25T00:54:54.443Z,65.00
2023-04-25T00:57:23.592Z,65.09
2023-04-25T00:59:54.250Z,64.92
2023-04-25T01:02:23.031Z,65.15
2023-04-25T01:04:50.969Z,65.59
2023-04-25T01:07:19.179Z,65.24
2023-04-25T01:09:48.190Z,65.07
2023-04-25T01:12:16.463Z,65.20
2023-04-25T01:14:46.048Z,65.05
2023-04-25T01:17:15.890Z,65.25
2023-04-25T01:19:44.066Z,65.47
2023-04-25T01:22:13.376Z,65.25
2023-04-25T01:24:41.345Z,65.43
2023-04-25T01:27:09.577Z,65.32
2023-04-25T01:29:38.227Z,65.35
2023-04-25T01:32:07.721Z,65.51
2023-04-25T01:34:35.684Z,65.45
2023-04-25T01:37:03.716Z,65.43
2023-04-25T01:39:32.900Z,65.55
2023-04-25T01:42:01.344Z,65.36
2023-04-25T01:44:29.441Z,65.54
2023-04-25T01:46:57.382Z,65.58
2023-04-25T01:49:25.249Z,65.62
2023-04-25T01:51:53.175Z,65.58
2023-04-25T01:54:21.264Z,65.72
2023-04-25T01:56:53.693Z,65.88
2023-04-25T01:59:22.822Z,65.67
2023-04-25T02:01:50.712Z,65.70
2023-04-25T02:04:18.827Z,65.86
2023-04-25T02:06:46.912Z,65.76
2023-04-25T02:09:14.684Z,65.70
2023-04-25T02:11:42.809Z,65.76
2023-04-25T02:14:11.913Z,66.00
2023-04-25T02:16:39.903Z,65.62
2023-04-25T02:19:08.445Z,65.79
2023-04-25T02:21:36.748Z,66.10
2023-04-25T02:24:05.325Z,66.18
2023-04-25T02:26:33.252Z,66.18
2023-04-25T02:29:04.081Z,66.16
2023-04-25T02:34:04.092Z,66.13
2023-04-25T02:36:35.205Z,65.93
2023-04-25T02:39:04.058Z,66.12
2023-04-25T02:41:31.955Z,66.23
2023-04-25T02:43:59.822Z,66.24
2023-04-25T02:46:38.443Z,66.32
2023-04-25T02:49:08.622Z,66.10
2023-04-25T02:51:36.486Z,66.19
2023-04-25T02:54:04.685Z,66.51
2023-04-25T02:56:32.450Z,66.33
2023-04-25T02:59:00.327Z,66.28
2023-04-25T03:01:28.409Z,66.50
2023-04-25T03:03:56.644Z,66.52
2023-04-25T03:06:26.090Z,66.32
2023-04-25T03:08:54.237Z,66.54
2023-04-25T03:11:22.380Z,66.34
2023-04-25T03:13:50.452Z,66.45
2023-04-25T03:16:18.894Z,66.52
2023-04-25T03:18:47.349Z,66.90
2023-04-25T03:21:15.363Z,66.71
2023-04-25T03:23:44.846Z,66.79
2023-04-25T03:26:12.777Z,66.95
2023-04-25T03:28:41.134Z,66.73
2023-04-25T03:31:08.896Z,66.68
2023-04-25T03:33:36.678Z,66.91
2023-04-25T03:36:04.924Z,66.82
2023-04-25T03:38:32.947Z,67.02
2023-04-25T03:41:02.696Z,67.17
2023-04-25T03:43:30.853Z,67.18
2023-04-25T03:45:58.967Z,67.05
2023-04-25T03:48:28.127Z,67.08
2023-04-25T03:50:56.705Z,67.17
2023-04-25T03:53:24.668Z,66.86
2023-04-25T03:55:52.529Z,67.13
2023-04-25T03:58:21.625Z,67.31
2023-04-25T04:00:49.543Z,67.26
2023-04-25T04:03:17.549Z,67.24
2023-04-25T04:05:46.269Z,67.35
2023-04-25T04:08:14.291Z,67.31
2023-04-25T04:10:42.212Z,67.45
2023-04-25T04:13:09.987Z,67.52
2023-04-25T04:15:39.464Z,67.51
2023-04-25T04:18:07.550Z,67.70
2023-04-25T04:20:35.381Z,67.47
2023-04-25T04:23:03.715Z,67.70
2023-04-25T04:25:31.764Z,67.89
2023-04-25T04:27:59.868Z,67.73
2023-04-25T04:30:30.440Z,67.52
2023-04-25T04:32:59.946Z,67.84
2023-04-25T04:35:27.832Z,68.03
2023-04-25T04:37:56.501Z,67.93
2023-04-25T04:40:24.580Z,67.97
2023-04-25T04:42:52.398Z,67.96
2023-04-25T04:45:20.277Z,68.04
2023-04-25T04:47:49.621Z,68.11
2023-04-25T04:50:19.341Z,67.95
2023-04-25T04:52:47.242Z,68.25
2023-04-25T04:55:15.270Z,68.17
2023-04-25T04:57:43.369Z,68.48
2023-04-25T05:00:12.494Z,68.21
2023-04-25T05:02:41.238Z,68.43
2023-04-25T05:05:09.968Z,68.44
2023-04-25T05:07:39.272Z,68.50
2023-04-25T05:10:08.324Z,68.39
2023-04-25T05:12:37.175Z,68.43
2023-04-25T05:15:05.716Z,68.63
2023-04-25T05:17:33.772Z,68.76
2023-04-25T05:20:01.749Z,68.60
2023-04-25T05:22:29.624Z,68.61
2023-04-25T05:24:58.851Z,68.52
2023-04-25T05:27:26.735Z,68.90
2023-04-25T05:29:54.505Z,68.62
2023-04-25T05:32:22.446Z,69.05
2023-04-25T05:34:51.066Z,69.04
2023-04-25T05:37:18.932Z,68.97
2023-04-25T05:39:46.833Z,68.82
2023-04-25T05:42:16.104Z,69.09
2023-04-25T05:44:43.943Z,69.04
2023-04-25T05:47:11.781Z,69.42
2023-04-25T05:49:41.974Z,69.51
2023-04-25T05:52:09.979Z,69.38
2023-04-25T05:54:37.953Z,68.97
2023-04-25T05:57:06.241Z,69.24
2023-04-25T05:59:35.979Z,69.25
2023-04-25T06:02:03.806Z,69.08
2023-04-25T06:06:06.917Z,69.60
2023-04-25T06:08:34.845Z,69.42
2023-04-25T06:11:02.831Z,69.86
2023-04-25T06:13:30.839Z,69.44
2023-04-25T06:15:58.673Z,70.18
2023-04-25T06:18:26.547Z,69.68
2023-04-25T06:20:54.538Z,70.14
2023-04-25T06:23:23.738Z,69.66
2023-04-25T06:25:52.146Z,69.74
2023-04-25T06:28:20.191Z,70.13
2023-04-25T06:30:48.074Z,69.92
2023-04-25T06:33:15.968Z,70.12
2023-04-25T06:35:44.058Z,70.01
2023-04-25T06:38:11.923Z,69.92
2023-04-25T06:40:41.097Z,70.22
2023-04-25T06:43:08.858Z,69.98
2023-04-25T06:45:36.816Z,70.28
2023-04-25T06:48:05.017Z,70.15
2023-04-25T06:50:32.990Z,70.21
2023-04-25T06:53:02.458Z,70.17
2023-04-25T06:55:30.546Z,70.08
2023-04-25T06:57:59.688Z,70.42
2023-04-25T07:00:27.598Z,70.45
2023-04-25T07:02:55.630Z,70.09
2023-04-25T07:05:23.586Z,70.72
2023-04-25T07:07:51.519Z,70.25
2023-04-25T07:10:19.351Z,70.35
2023-04-25T07:12:47.248Z,70.86
2023-04-25T07:15:16.483Z,70.62
2023-04-25T07:17:44.367Z,70.52
2023-04-25T07:20:12.961Z,70.84
2023-04-25T07:22:41.086Z,70.82
2023-04-25T07:25:10.113Z,71.15
2023-04-25T07:27:38.230Z,70.63
2023-04-25T07:30:07.202Z,71.13
2023-04-25T07:32:37.455Z,71.26
2023-04-25T07:35:08.012Z,70.76
2023-04-25T07:37:35.856Z,71.26
2023-04-25T07:40:04.844Z,71.55
2023-04-25T07:42:32.765Z,71.51
2023-04-25T07:45:00.596Z,71.32
2023-04-25T07:47:28.371Z,71.57
2023-04-25T07:49:58.866Z,71.29
2023-04-25T07:52:26.662Z,71.12
2023-04-25T07:54:54.590Z,71.71
2023-04-25T07:57:22.504Z,71.38
2023-04-25T07:59:50.340Z,71.02
2023-04-25T08:02:18.245Z,71.94
2023-04-25T08:04:46.316Z,71.92
2023-04-25T08:07:16.054Z,71.73
2023-04-25T08:09:43.872Z,71.63
2023-04-25T08:12:12.016Z,71.98
2023-04-25T08:14:40.823Z,71.88
2023-04-25T08:17:08.621Z,71.76
2023-04-25T08:19:36.503Z,72.04
2023-04-25T08:22:04.309Z,72.35
2023-04-25T08:24:33.411Z,71.78
2023-04-25T08:27:01.670Z,71.62
2023-04-25T08:29:29.612Z,71.88
2023-04-25T08:31:57.827Z,72.15
2023-04-25T08:34:26.718Z,71.89
2023-04-25T08:36:54.694Z,72.35
2023-04-25T08:39:22.775Z,72.32
2023-04-25T08:41:53.729Z,72.04
2023-04-25T08:44:22.345Z,72.03
2023-04-25T08:46:51.483Z,72.39
2023-04-25T08:49:20.823Z,72.28
2023-04-25T08:51:50.817Z,72.01
2023-04-25T08:54:34.606Z,72.52
2023-04-25T08:57:06.361Z,72.03
2023-04-25T08:59:35.617Z,72.39
2023-04-25T09:02:05.354Z,72.72
2023-04-25T09:04:33.657Z,72.42
2023-04-25T09:07:01.521Z,72.49
2023-04-25T09:09:29.438Z,72.60
2023-04-25T09:11:57.372Z,72.55
2023-04-25T09:14:28.909Z,72.49
2023-04-25T09:17:02.274Z,72.63
2023-04-25T09:19:40.222Z,72.42
2023-04-25T09:22:10.645Z,72.54
2023-04-25T09:24:40.435Z,72.44
2023-04-25T09:27:09.580Z,72.69
2023-04-25T09:29:41.831Z,72.66
2023-04-25T09:32:14.704Z,72.70
2023-04-25T09:34:43.443Z,72.74
2023-04-25T09:37:11.653Z,72.73
2023-04-25T09:39:41.038Z,72.74
2023-04-25T09:42:11.540Z,72.65
2023-04-25T10:07:14.244Z,73.23
2023-04-25T10:09:43.075Z,73.09
2023-04-25T10:12:11.793Z,72.67
2023-04-25T10:14:40.679Z,72.96
2023-04-25T10:17:12.394Z,72.79
2023-04-25T10:19:41.325Z,73.00
2023-04-25T10:22:17.016Z,73.02
2023-04-25T10:24:47.256Z,72.95
2023-04-25T10:27:15.749Z,73.28
2023-04-25T10:29:45.198Z,72.83
2023-04-25T10:32:13.380Z,73.00
2023-04-25T10:34:43.186Z,73.14
2023-04-25T10:37:12.642Z,72.95
2023-04-25T10:39:43.284Z,72.84
2023-04-25T10:42:11.213Z,72.74
2023-04-25T10:44:40.655Z,72.84
2023-04-25T10:47:10.630Z,72.78
2023-04-25T10:49:40.257Z,73.33
2023-04-25T10:52:29.213Z,72.67
2023-04-25T10:54:59.774Z,72.70
2023-04-25T10:57:32.347Z,73.03
2023-04-25T11:00:02.053Z,73.35
2023-04-25T11:02:30.546Z,72.71
2023-04-25T11:04:58.696Z,72.81
2023-04-25T11:07:36.072Z,72.65
2023-04-25T11:10:06.616Z,72.77
2023-04-25T11:12:35.002Z,72.89
2023-04-25T11:15:05.237Z,73.13
2023-04-25T11:17:35.148Z,72.75
2023-04-25T11:20:03.597Z,72.92
2023-04-25T11:22:31.586Z,72.29
2023-04-25T11:24:59.631Z,72.78
2023-04-25T11:27:28.912Z,72.63
2023-04-25T11:29:56.971Z,73.39
2023-04-25T11:32:27.652Z,72.63
2023-04-25T11:34:55.852Z,73.11
2023-04-25T11:37:23.906Z,72.79
2023-04-25T11:39:52.057Z,72.63
2023-04-25T11:42:20.990Z,72.46
2023-04-25T11:44:50.475Z,72.31
2023-04-25T11:47:18.335Z,72.79
2023-04-25T11:49:46.303Z,72.58
2023-04-25T11:52:14.455Z,72.55
2023-04-25T11:54:42.265Z,72.47
2023-04-25T11:57:10.913Z,72.37
2023-04-25T11:59:38.846Z,72.33
2023-04-25T12:02:08.417Z,72.30
2023-04-25T12:04:36.991Z,72.84
2023-04-25T12:07:05.136Z,72.70
2023-04-25T12:09:35.004Z,72.75
2023-04-25T12:12:04.786Z,72.76
2023-04-25T12:14:37.702Z,72.33
2023-04-25T12:17:09.123Z,72.39
2023-04-25T12:19:41.288Z,72.35
2023-04-25T12:22:22.062Z,72.67
2023-04-25T12:24:54.546Z,72.48
2023-04-25T12:27:22.754Z,72.32
2023-04-25T12:29:55.610Z,72.54
2023-04-25T12:32:23.768Z,72.87
2023-04-25T12:34:53.110Z,72.58
2023-04-25T12:37:23.238Z,72.76
2023-04-25T12:39:54.138Z,72.78
2023-04-25T12:42:22.020Z,72.46
2023-04-25T12:44:49.962Z,72.38
2023-04-25T12:47:17.845Z,72.34
2023-04-25T12:49:45.887Z,72.15
2023-04-25T12:52:15.298Z,72.85
2023-04-25T12:54:43.280Z,72.75
2023-04-25T12:57:12.351Z,72.53
2023-04-25T12:59:40.268Z,72.52
2023-04-25T13:02:08.184Z,72.34
2023-04-25T13:04:36.152Z,72.77
2023-04-25T13:07:04.543Z,72.71
2023-04-25T13:09:33.755Z,72.40
2023-04-25T13:12:01.693Z,72.41
2023-04-25T13:14:29.495Z,72.56
2023-04-25T13:16:57.552Z,72.56
2023-04-25T13:19:26.103Z,72.17
2023-04-25T13:21:54.278Z,71.93
2023-04-25T13:24:22.127Z,72.42
2023-04-25T13:26:51.553Z,72.30
2023-04-25T13:29:19.453Z,72.43
2023-04-25T13:31:47.350Z,71.97
2023-04-25T13:34:15.851Z,72.04
2023-04-25T13:36:43.739Z,72.11
2023-04-25T13:39:13.293Z,72.84
2023-04-25T13:41:41.367Z,72.18
2023-04-25T13:44:10.702Z,72.11
2023-04-25T13:49:13.248Z,72.11
2023-04-25T13:51:41.651Z,72.25
2023-04-25T13:54:09.756Z,72.53
2023-04-25T13:56:37.814Z,72.12
2023-04-25T13:59:05.755Z,72.73
2023-04-25T14:01:36.768Z,72.36
2023-04-25T14:04:06.260Z,71.98
2023-04-25T14:06:34.760Z,72.37
2023-04-25T14:09:05.539Z,72.22
2023-04-25T14:11:33.571Z,72.40
2023-04-25T14:14:01.517Z,72.20
2023-04-25T14:16:50.250Z,72.04
2023-04-25T14:19:20.299Z,72.20
2023-04-25T14:21:50.272Z,71.91
2023-04-25T14:24:18.589Z,72.66
2023-04-25T14:26:46.492Z,72.49
2023-04-25T14:29:14.656Z,72.22
2023-04-25T14:31:44.052Z,72.38
2023-04-25T14:34:12.393Z,72.59
2023-04-25T14:36:41.059Z,72.58
2023-04-25T14:39:09.926Z,72.03
2023-04-25T14:41:37.823Z,72.13
2023-04-25T14:44:06.988Z,72.12
2023-04-25T14:46:35.206Z,72.52
2023-04-25T14:49:04.782Z,72.41
2023-04-25T14:51:32.840Z,71.79
2023-04-25T14:54:00.750Z,72.03
2023-04-25T14:56:28.653Z,72.16
2023-04-25T14:58:56.577Z,71.91
2023-04-25T15:01:24.793Z,71.32
2023-04-25T15:03:53.586Z,72.46
2023-04-25T15:06:23.305Z,72.68
2023-04-25T15:08:51.372Z,71.46
2023-04-25T15:11:19.925Z,71.80
2023-04-25T15:13:47.760Z,72.24
2023-04-25T15:16:16.006Z,71.96
2023-04-25T15:18:43.945Z,72.05
2023-04-25T15:21:12.234Z,72.43
2023-04-25T15:23:41.611Z,71.79
2023-04-25T15:26:13.316Z,72.13
2023-04-25T15:28:42.370Z,71.97
2023-04-25T15:31:12.652Z,72.13
2023-04-25T15:33:40.517Z,71.95
2023-04-25T15:36:08.797Z,71.90
2023-04-25T15:38:36.738Z,72.27
2023-04-25T15:41:06.994Z,71.77
2023-04-25T15:43:36.825Z,71.75
2023-04-25T15:46:04.999Z,71.96
2023-04-25T15:48:33.549Z,71.99
2023-04-25T15:51:03.793Z,72.42
2023-04-25T15:53:31.997Z,72.18
2023-04-25T15:55:59.926Z,71.84
2023-04-25T15:58:29.067Z,71.35
2023-04-25T16:00:57.581Z,72.20
2023-04-25T16:03:26.029Z,71.94
2023-04-25T16:05:54.067Z,72.01
2023-04-25T16:08:22.353Z,72.38
2023-04-25T16:10:50.588Z,72.16
2023-04-25T16:13:18.581Z,72.01
2023-04-25T16:16:41.735Z,72.29
2023-04-25T16:19:00.718Z,72.08
2023-04-25T16:21:29.036Z,72.21
2023-04-25T16:23:57.111Z,72.27
2023-04-25T16:26:26.039Z,72.09
2023-04-25T16:31:41.786Z,72.11
2023-04-25T16:34:10.067Z,71.72
2023-04-25T16:36:38.279Z,72.06
2023-04-25T16:39:30.215Z,71.92
2023-04-25T16:42:04.677Z,72.04
2023-04-25T16:44:45.273Z,71.92
2023-04-25T16:47:25.560Z,71.89
2023-04-25T16:49:54.933Z,71.65
2023-04-25T16:52:23.902Z,71.26
2023-04-25T16:54:52.082Z,71.98
2023-04-25T16:57:25.517Z,71.62
2023-04-25T16:59:56.667Z,71.77
2023-04-25T17:02:26.616Z,71.33
2023-04-25T17:04:54.913Z,71.55
2023-04-25T17:07:24.725Z,71.39
2023-04-25T17:09:52.740Z,71.33
2023-04-25T17:12:24.501Z,71.35
2023-04-25T17:14:52.610Z,71.08
2023-04-25T17:17:21.483Z,71.57
2023-04-25T17:19:50.808Z,71.22
2023-04-25T17:22:18.820Z,71.37
2023-04-25T17:24:48.889Z,71.26
2023-04-25T17:27:16.934Z,71.50
2023-04-25T17:29:52.084Z,71.14
2023-04-25T17:32:20.149Z,71.09
2023-04-25T17:34:48.319Z,70.99
2023-04-25T17:37:21.151Z,71.26
2023-04-25T17:39:50.029Z,71.11
2023-04-25T17:42:17.947Z,71.18
2023-04-25T17:44:45.980Z,71.13
2023-04-25T17:47:13.915Z,71.56
2023-04-25T17:49:42.770Z,71.33
2023-04-25T17:52:10.683Z,71.26
2023-04-25T17:54:40.124Z,71.07
2023-04-25T17:57:08.249Z,71.29
2023-04-25T17:59:36.418Z,71.31
2023-04-25T18:02:04.439Z,71.05
2023-04-25T18:04:34.813Z,71.37
2023-04-25T18:07:05.912Z,71.17
2023-04-25T18:09:34.352Z,71.14
2023-04-25T18:12:04.641Z,70.83
2023-04-25T18:14:35.015Z,71.11
2023-04-25T18:17:04.187Z,71.29
2023-04-25T18:19:32.227Z,71.03
2023-04-25T18:22:00.199Z,70.87
2023-04-25T18:24:28.637Z,71.11
2023-04-25T18:27:00.490Z,70.92
2023-04-25T18:29:33.623Z,71.28
2023-04-25T18:32:01.952Z,71.22
2023-04-25T18:34:29.907Z,70.79
2023-04-25T18:37:00.561Z,70.77
2023-04-25T18:39:28.623Z,71.20
2023-04-25T18:42:04.212Z,71.37
2023-04-25T18:44:40.104Z,70.75
2023-04-25T18:47:10.084Z,71.15
2023-04-25T18:49:38.677Z,70.87
2023-04-25T18:52:08.669Z,71.34
2023-04-25T18:54:37.084Z,71.15
2023-04-25T18:57:06.308Z,71.29
2023-04-25T18:59:34.393Z,71.13
2023-04-25T19:02:05.327Z,71.44
2023-04-25T19:04:33.959Z,71.28
2023-04-25T19:07:02.679Z,71.43
2023-04-25T19:09:30.755Z,70.64
2023-04-25T19:11:58.675Z,70.99
2023-04-25T19:14:28.493Z,71.41
2023-04-25T19:17:00.234Z,70.83
2023-04-25T19:19:34.022Z,70.84
2023-04-25T19:22:02.043Z,71.25
2023-04-25T19:24:29.801Z,70.89
2023-04-25T19:26:57.748Z,70.78
2023-04-25T19:29:25.840Z,70.92
2023-04-25T19:31:54.633Z,71.12
2023-04-25T19:34:23.460Z,70.88
2023-04-25T19:36:54.291Z,71.35
2023-04-25T19:39:23.881Z,71.61
2023-04-25T19:41:56.806Z,71.42
2023-04-25T19:44:25.315Z,71.49
2023-04-25T19:46:53.524Z,70.87
2023-04-25T19:49:21.406Z,71.05
2023-04-25T19:51:49.286Z,71.30
2023-04-25T19:54:18.719Z,71.62
2023-04-25T19:56:46.651Z,71.76
2023-04-25T19:59:14.477Z,71.55
2023-04-25T20:01:42.452Z,71.39
2023-04-25T20:04:10.643Z,70.97
2023-04-25T20:06:38.565Z,71.64
2023-04-25T20:09:09.702Z,71.71
2023-04-25T20:11:38.916Z,71.01
2023-04-25T20:14:08.462Z,71.39
2023-04-25T20:16:36.582Z,71.18
2023-04-25T20:19:05.248Z,71.61
2023-04-25T20:21:34.299Z,70.95
2023-04-25T20:24:05.854Z,71.53
2023-04-25T20:26:34.550Z,71.50
2023-04-25T20:29:04.135Z,71.23
2023-04-25T20:31:37.043Z,71.47
2023-04-25T20:34:05.085Z,71.94
2023-04-25T20:36:33.786Z,71.93
2023-04-25T20:39:04.990Z,71.24
2023-04-25T20:41:37.736Z,71.51
2023-04-25T20:44:07.862Z,71.87
2023-04-25T20:46:36.356Z,71.80
2023-04-25T20:49:08.251Z,71.56
2023-04-25T20:51:37.284Z,72.24
2023-04-25T20:54:05.227Z,71.56
2023-04-25T20:56:33.051Z,72.02
2023-04-25T20:59:01.298Z,72.34
2023-04-25T21:01:30.607Z,72.09
2023-04-25T21:03:59.180Z,71.49
2023-04-25T21:06:27.723Z,71.59
2023-04-25T21:08:55.640Z,71.62
2023-04-25T21:11:24.111Z,72.26
2023-04-25T21:13:52.524Z,72.22
2023-04-25T21:16:20.523Z,72.08
2023-04-25T21:18:53.099Z,71.98
2023-04-25T21:21:21.320Z,72.05
2023-04-25T21:23:49.202Z,72.59
2023-04-25T21:26:17.200Z,71.79
2023-04-25T21:28:46.954Z,71.89
2023-04-25T21:31:15.219Z,72.35
2023-04-25T21:33:43.129Z,72.64
2023-04-25T21:36:12.859Z,71.71
2023-04-25T21:38:40.709Z,72.14
2023-04-25T21:41:09.915Z,72.43
2023-04-25T21:43:38.090Z,72.22
2023-04-25T21:46:22.271Z,71.93
2023-04-25T21:48:52.079Z,72.17
2023-04-25T21:51:22.245Z,72.38
2023-04-25T21:53:50.027Z,72.84
2023-04-25T21:56:17.874Z,72.82
2023-04-25T21:58:46.697Z,72.18
2023-04-25T22:01:17.467Z,72.45
2023-04-25T22:03:45.585Z,72.61
2023-04-25T22:06:13.789Z,72.88
2023-04-25T22:08:43.868Z,72.89
2023-04-25T22:11:14.980Z,72.67
2023-04-25T22:13:43.004Z,72.58
2023-04-25T22:16:12.356Z,72.42
2023-04-25T22:18:42.264Z,72.95
2023-04-25T22:21:10.391Z,73.02
2023-04-25T22:23:38.384Z,72.97
2023-04-25T22:34:24.243Z,73.02
2023-04-25T22:36:52.184Z,73.28
2023-04-25T22:39:20.403Z,72.62
2023-04-25T22:41:49.968Z,73.16
2023-04-25T22:44:17.906Z,73.24
2023-04-25T22:46:45.823Z,73.45
2023-04-25T22:49:13.739Z,73.16
2023-04-25T22:51:42.227Z,73.16
2023-04-25T22:54:10.137Z,72.89
2023-04-25T22:56:38.037Z,73.25
2023-04-25T22:59:07.368Z,73.66
2023-04-25T23:01:36.308Z,73.34
2023-04-25T23:04:05.256Z,72.92
2023-04-25T23:06:33.692Z,72.90
2023-04-25T23:09:01.630Z,73.14
2023-04-25T23:11:31.708Z,73.45
2023-04-25T23:13:59.764Z,73.39
2023-04-25T23:16:29.005Z,73.69
2023-04-25T23:18:56.872Z,73.74
2023-04-25T23:21:24.683Z,73.32
2023-04-25T23:23:52.647Z,73.71
2023-04-25T23:26:21.459Z,74.02
2023-04-25T23:28:49.993Z,73.33
2023-04-25T23:31:18.669Z,73.41
2023-04-25T23:33:48.230Z,73.79
2023-04-25T23:36:22.550Z,73.62
2023-04-25T23:38:52.610Z,74.06
2023-04-25T23:41:20.539Z,73.54
2023-04-25T23:43:48.434Z,73.64
2023-04-25T23:46:16.899Z,73.92
2023-04-25T23:48:46.485Z,73.43
2023-04-25T23:51:16.766Z,73.89
2023-04-25T23:53:46.837Z,73.94
2023-04-25T23:56:15.089Z,73.85
2023-04-25T23:58:50.483Z,74.28
